createdAt,value
2023-04-20T00:00:47.107Z,99552.71
2023-04-20T00:01:49.362Z,99558.69
2023-04-20T00:02:52.633Z,99556.92
2023-04-20T00:03:56.773Z,99547.52
2023-04-20T00:04:59.472Z,99550.11
2023-04-20T00:06:02.752Z,99546.69
2023-04-20T00:07:05.834Z,99545.70
2023-04-20T00:08:09.815Z,99552.63
2023-04-20T00:09:13.304Z,99545.55
2023-04-20T00:10:16.162Z,99543.03
2023-04-20T00:11:18.306Z,99542.04
2023-04-20T00:12:20.635Z,99546.25
2023-04-20T00:13:22.969Z,99548.02
2023-04-20T00:14:25.394Z,99544.52
2023-04-20T00:15:33.743Z,99545.27
2023-04-20T00:16:37.265Z,99546.17
2023-04-20T00:17:39.579Z,99549.84
2023-04-20T00:18:42.308Z,99547.23
2023-04-20T00:19:45.822Z,99538.53
2023-04-20T00:20:48.087Z,99545.27
2023-04-20T00:21:50.714Z,99546.95
2023-04-20T00:22:54.221Z,99538.38
2023-04-20T00:23:57.019Z,99546.13
2023-04-20T00:24:59.051Z,99539.31
2023-04-20T00:26:01.287Z,99537.70
2023-04-20T00:27:03.664Z,99539.23
2023-04-20T00:28:05.873Z,99532.35
2023-04-20T00:29:09.619Z,99538.38
2023-04-20T00:30:13.968Z,99533.96
2023-04-20T00:31:17.036Z,99532.35
2023-04-20T00:32:19.781Z,99532.43
2023-04-20T00:33:23.931Z,99533.34
2023-04-20T00:34:26.162Z,99528.14
2023-04-20T00:35:28.458Z,99533.41
2023-04-20T00:36:31.082Z,99531.80
2023-04-20T00:37:34.158Z,99531.80
2023-04-20T00:38:36.479Z,99522.12
2023-04-20T00:39:40.608Z,99522.12
2023-04-20T00:40:44.102Z,99525.55
2023-04-20T00:41:46.591Z,99521.13
2023-04-20T00:42:48.913Z,99522.95
2023-04-20T00:43:53.438Z,99516.06
2023-04-20T00:44:55.810Z,99523.85
2023-04-20T00:45:59.285Z,99522.12
2023-04-20T00:47:01.683Z,99519.56
2023-04-20T00:48:05.980Z,99523.07
2023-04-20T00:49:09.137Z,99519.56
2023-04-20T00:50:12.367Z,99518.03
2023-04-20T00:51:15.012Z,99516.34
2023-04-20T00:52:17.542Z,99509.45
2023-04-20T00:53:20.369Z,99513.63
2023-04-20T00:54:26.320Z,99512.84
2023-04-20T00:55:30.595Z,99516.06
2023-04-20T00:56:33.330Z,99514.25
2023-04-20T00:57:36.359Z,99503.15
2023-04-20T00:58:38.924Z,99506.73
2023-04-20T00:59:41.549Z,99509.17
2023-04-20T01:00:44.172Z,99505.83
2023-04-20T01:01:47.581Z,99511.02
2023-04-20T01:02:51.396Z,99505.05
2023-04-20T01:03:54.312Z,99506.73
2023-04-20T01:04:57.005Z,99498.78
2023-04-20T01:06:00.145Z,99506.58
2023-04-20T01:07:03.069Z,99502.23
2023-04-20T01:08:08.438Z,99511.56
2023-04-20T01:09:11.910Z,99500.34
2023-04-20T01:10:14.733Z,99496.13
2023-04-20T01:11:17.725Z,99504.68
2023-04-20T01:12:20.231Z,99501.38
2023-04-20T01:13:22.934Z,99500.47
2023-04-20T01:14:25.051Z,99499.56
2023-04-20T01:15:28.302Z,99496.06
2023-04-20T01:16:31.367Z,99503.85
2023-04-20T01:17:36.748Z,99502.95
2023-04-20T01:18:44.935Z,99499.64
2023-04-20T01:19:48.544Z,99500.47
2023-04-20T01:20:50.913Z,99500.84
2023-04-20T01:21:53.130Z,99497.37
2023-04-20T01:22:55.855Z,99498.28
2023-04-20T01:23:58.538Z,99497.53
2023-04-20T01:25:00.976Z,99501.04
2023-04-20T01:26:08.710Z,99490.65
2023-04-20T01:27:11.762Z,99494.03
2023-04-20T01:28:14.153Z,99494.86
2023-04-20T01:29:17.121Z,99494.08
2023-04-20T01:30:19.604Z,99494.98
2023-04-20T01:31:22.460Z,99495.84
2023-04-20T01:32:27.387Z,99491.56
2023-04-20T01:33:30.091Z,99491.64
2023-04-20T01:34:32.369Z,99483.77
2023-04-20T01:35:34.692Z,99487.27
2023-04-20T01:36:37.654Z,99489.79
2023-04-20T01:37:41.632Z,99488.17
2023-04-20T01:38:43.988Z,99489.87
2023-04-20T01:39:46.107Z,99488.17
2023-04-20T01:40:48.722Z,99489.08
2023-04-20T01:41:51.259Z,99492.47
2023-04-20T01:42:54.039Z,99484.67
2023-04-20T01:43:58.147Z,99488.05
2023-04-20T01:45:00.448Z,99485.30
2023-04-20T01:46:03.475Z,99482.94
2023-04-20T01:47:05.911Z,99483.77
2023-04-20T01:48:08.665Z,99488.95
2023-04-20T01:49:12.102Z,99487.42
2023-04-20T01:50:14.692Z,99484.05
2023-04-20T01:51:17.365Z,99483.89
2023-04-20T01:52:19.773Z,99473.78
2023-04-20T01:53:24.835Z,99471.42
2023-04-20T01:54:27.024Z,99473.16
2023-04-20T01:55:30.188Z,99468.75
2023-04-20T01:56:33.042Z,99471.27
2023-04-20T01:57:35.735Z,99469.53
2023-04-20T01:58:38.191Z,99467.89
2023-04-20T01:59:40.598Z,99464.38
2023-04-20T02:00:44.519Z,99465.53
2023-04-20T02:01:47.155Z,99468.13
2023-04-20T02:02:50.020Z,99460.17
2023-04-20T02:03:52.642Z,99467.97
2023-04-20T02:04:56.742Z,99461.23
2023-04-20T02:05:58.966Z,99469.03
2023-04-20T02:07:03.235Z,99464.66
2023-04-20T02:08:05.675Z,99462.14
2023-04-20T02:09:08.711Z,99463.95
2023-04-20T02:10:12.770Z,99462.14
2023-04-20T02:11:17.146Z,99456.95
2023-04-20T02:12:19.315Z,99455.14
2023-04-20T02:13:21.849Z,99469.73
2023-04-20T02:14:24.302Z,99463.68
2023-04-20T02:15:26.535Z,99461.08
2023-04-20T02:16:29.434Z,99465.38
2023-04-20T02:17:33.865Z,99465.53
2023-04-20T02:18:36.831Z,99463.83
2023-04-20T02:19:39.787Z,99464.87
2023-04-20T02:20:43.482Z,99460.66
2023-04-20T02:21:46.040Z,99453.73
2023-04-20T02:22:48.364Z,99464.95
2023-04-20T02:23:50.928Z,99458.92
2023-04-20T02:24:56.575Z,99456.38
2023-04-20T02:25:59.078Z,99458.06
2023-04-20T02:27:01.903Z,99460.58
2023-04-20T02:28:06.041Z,99460.53
2023-04-20T02:29:08.217Z,99457.94
2023-04-20T02:30:11.908Z,99455.27
2023-04-20T02:31:14.310Z,99453.58
2023-04-20T02:32:18.882Z,99448.45
2023-04-20T02:33:21.883Z,99451.05
2023-04-20T02:34:25.938Z,99451.05
2023-04-20T02:35:30.239Z,99448.54
2023-04-20T02:36:33.750Z,99447.67
2023-04-20T02:37:36.232Z,99442.41
2023-04-20T02:38:40.577Z,99439.97
2023-04-20T02:39:42.997Z,99438.44
2023-04-20T02:40:45.720Z,99441.03
2023-04-20T02:41:48.219Z,99442.92
2023-04-20T02:42:50.455Z,99441.23
2023-04-20T02:43:52.885Z,99443.95
2023-04-20T02:44:55.611Z,99444.73
2023-04-20T02:45:57.809Z,99431.67
2023-04-20T02:47:00.395Z,99442.06
2023-04-20T02:48:03.007Z,99435.96
2023-04-20T02:49:06.961Z,99436.74
2023-04-20T02:50:12.333Z,99446.06
2023-04-20T02:51:16.364Z,99436.74
2023-04-20T02:52:20.365Z,99443.63
2023-04-20T02:53:22.748Z,99439.14
2023-04-20T02:54:26.928Z,99448.66
2023-04-20T02:55:29.363Z,99441.78
2023-04-20T02:56:33.085Z,99441.78
2023-04-20T02:57:37.270Z,99447.83
2023-04-20T02:58:41.848Z,99441.78
2023-04-20T02:59:45.993Z,99446.84
2023-04-20T03:01:00.443Z,99447.75
2023-04-20T03:02:03.723Z,99448.81
2023-04-20T03:03:06.758Z,99445.28
2023-04-20T03:04:09.774Z,99444.45
2023-04-20T03:05:13.991Z,99454.01
2023-04-20T03:06:18.502Z,99453.15
2023-04-20T03:07:23.337Z,99452.32
2023-04-20T03:08:26.179Z,99443.75
2023-04-20T03:09:29.223Z,99444.58
2023-04-20T03:10:37.596Z,99448.81
2023-04-20T03:11:42.146Z,99439.39
2023-04-20T03:12:46.002Z,99451.03
2023-04-20T03:13:53.257Z,99444.10
2023-04-20T03:14:55.542Z,99445.84
2023-04-20T03:16:00.338Z,99444.16
2023-04-20T03:17:04.935Z,99447.69
2023-04-20T03:18:07.080Z,99446.70
2023-04-20T03:19:09.275Z,99438.05
2023-04-20T03:20:13.279Z,99451.89
2023-04-20T03:21:15.947Z,99448.52
2023-04-20T03:22:19.137Z,99442.22
2023-04-20T03:23:22.680Z,99447.25
2023-04-20T03:24:25.944Z,99445.56
2023-04-20T03:25:29.999Z,99447.41
2023-04-20T03:26:37.208Z,99446.42
2023-04-20T03:27:47.405Z,99445.56
2023-04-20T03:28:51.879Z,99443.83
2023-04-20T03:29:56.531Z,99442.06
2023-04-20T03:31:00.587Z,99437.65
2023-04-20T03:32:03.561Z,99441.16
2023-04-20T03:33:06.141Z,99441.94
2023-04-20T03:34:09.146Z,99436.74
2023-04-20T03:35:12.436Z,99444.45
2023-04-20T03:36:16.848Z,99447.88
2023-04-20T03:37:19.333Z,99446.34
2023-04-20T03:38:22.715Z,99442.06
2023-04-20T03:39:25.276Z,99441.23
2023-04-20T03:40:27.727Z,99441.98
2023-04-20T03:41:30.934Z,99442.92
2023-04-20T03:42:33.107Z,99435.84
2023-04-20T03:43:35.547Z,99446.84
2023-04-20T03:44:38.634Z,99436.47
2023-04-20T03:45:41.690Z,99446.69
2023-04-20T03:46:45.257Z,99440.67
2023-04-20T03:47:48.728Z,99436.97
2023-04-20T03:48:51.299Z,99436.97
2023-04-20T03:49:53.740Z,99443.06
2023-04-20T03:50:58.826Z,99443.06
2023-04-20T03:52:01.434Z,99437.87
2023-04-20T03:53:03.778Z,99442.08
2023-04-20T03:54:08.023Z,99445.45
2023-04-20T03:55:11.104Z,99429.63
2023-04-20T03:56:15.527Z,99439.12
2023-04-20T03:57:18.665Z,99435.48
2023-04-20T03:58:21.625Z,99430.50
2023-04-20T03:59:29.170Z,99430.50
2023-04-20T04:00:32.125Z,99437.59
2023-04-20T04:01:38.450Z,99447.06
2023-04-20T04:02:41.102Z,99439.12
2023-04-20T04:03:44.016Z,99436.39
2023-04-20T04:04:47.010Z,99445.17
2023-04-20T04:05:50.742Z,99448.67
2023-04-20T04:06:53.775Z,99438.13
2023-04-20T04:07:55.976Z,99441.51
2023-04-20T04:08:58.383Z,99448.47
2023-04-20T04:10:02.606Z,99443.48
2023-04-20T04:11:05.210Z,99450.41
2023-04-20T04:12:07.789Z,99439.27
2023-04-20T04:13:10.147Z,99445.37
2023-04-20T04:14:12.865Z,99449.00
2023-04-20T04:15:15.875Z,99440.47
2023-04-20T04:16:23.156Z,99438.78
2023-04-20T04:17:26.052Z,99439.69
2023-04-20T04:18:32.146Z,99445.00
2023-04-20T04:19:35.898Z,99432.96
2023-04-20T04:20:40.163Z,99430.36
2023-04-20T04:21:44.137Z,99439.39
2023-04-20T04:22:47.966Z,99439.27
2023-04-20T04:23:55.334Z,99441.78
2023-04-20T04:24:59.988Z,99441.78
2023-04-20T04:26:03.628Z,99442.56
2023-04-20T04:27:07.565Z,99437.37
2023-04-20T04:28:13.112Z,99435.48
2023-04-20T04:29:18.918Z,99438.91
2023-04-20T04:30:21.803Z,99434.77
2023-04-20T04:31:24.751Z,99441.08
2023-04-20T04:32:26.963Z,99441.94
2023-04-20T04:33:29.439Z,99442.56
2023-04-20T04:34:33.723Z,99441.45
2023-04-20T04:35:38.255Z,99445.98
2023-04-20T04:36:41.158Z,99433.24
2023-04-20T04:37:45.628Z,99438.95
2023-04-20T04:38:48.559Z,99433.77
2023-04-20T04:39:50.958Z,99439.46
2023-04-20T04:40:55.688Z,99438.68
2023-04-20T04:41:57.999Z,99443.63
2023-04-20T04:43:03.407Z,99443.63
2023-04-20T04:44:06.422Z,99439.34
2023-04-20T04:45:11.476Z,99437.73
2023-04-20T04:46:15.383Z,99441.78
2023-04-20T04:47:19.415Z,99438.86
2023-04-20T04:48:22.572Z,99432.18
2023-04-20T04:49:26.033Z,99444.17
2023-04-20T04:50:28.454Z,99445.00
2023-04-20T04:51:31.180Z,99445.00
2023-04-20T04:52:33.524Z,99446.97
2023-04-20T04:53:37.236Z,99446.22
2023-04-20T04:54:40.329Z,99444.45
2023-04-20T04:55:43.086Z,99452.05
2023-04-20T04:56:45.496Z,99447.83
2023-04-20T04:57:48.192Z,99440.25
2023-04-20T04:58:50.648Z,99444.81
2023-04-20T04:59:53.219Z,99437.77
2023-04-20T05:00:55.670Z,99450.83
2023-04-20T05:01:58.855Z,99452.59
2023-04-20T05:03:01.319Z,99445.28
2023-04-20T05:04:03.884Z,99443.44
2023-04-20T05:05:09.539Z,99440.84
2023-04-20T05:06:12.818Z,99433.92
2023-04-20T05:07:15.233Z,99446.39
2023-04-20T05:08:17.769Z,99436.13
2023-04-20T05:09:20.534Z,99438.61
2023-04-20T05:10:23.242Z,99446.27
2023-04-20T05:11:25.568Z,99430.94
2023-04-20T05:12:27.903Z,99442.03
2023-04-20T05:13:30.110Z,99433.30
2023-04-20T05:14:33.696Z,99437.63
2023-04-20T05:15:36.119Z,99425.91
2023-04-20T05:16:38.685Z,99433.88
2023-04-20T05:17:41.013Z,99434.03
2023-04-20T05:18:43.409Z,99434.98
2023-04-20T05:19:45.612Z,99434.23
2023-04-20T05:20:47.934Z,99437.58
2023-04-20T05:21:50.169Z,99429.67
2023-04-20T05:22:52.289Z,99440.05
2023-04-20T05:23:55.006Z,99437.58
2023-04-20T05:24:57.133Z,99429.80
2023-04-20T05:25:59.650Z,99440.17
2023-04-20T05:27:03.678Z,99440.33
2023-04-20T05:28:06.049Z,99432.66
2023-04-20T05:29:09.432Z,99432.54
2023-04-20T05:30:20.600Z,99429.80
2023-04-20T05:31:16.044Z,99438.52
2023-04-20T05:33:21.296Z,99426.77
2023-04-20T05:34:24.387Z,99436.94
2023-04-20T05:35:27.345Z,99430.85
2023-04-20T05:36:30.403Z,99434.98
2023-04-20T05:37:33.495Z,99434.27
2023-04-20T05:38:36.304Z,99437.92
2023-04-20T05:39:38.845Z,99440.33
2023-04-20T05:40:41.327Z,99440.95
2023-04-20T05:41:44.893Z,99445.24
2023-04-20T05:42:47.488Z,99448.74
2023-04-20T05:43:50.113Z,99441.75
2023-04-20T05:44:52.350Z,99429.56
2023-04-20T05:45:55.535Z,99439.00
2023-04-20T05:46:58.184Z,99442.45
2023-04-20T05:48:01.471Z,99432.34
2023-04-20T05:49:04.527Z,99437.02
2023-04-20T05:50:09.445Z,99431.64
2023-04-20T05:51:11.971Z,99436.67
2023-04-20T05:52:14.393Z,99440.95
2023-04-20T05:53:16.729Z,99438.37
2023-04-20T05:54:19.705Z,99438.09
2023-04-20T05:55:22.998Z,99441.20
2023-04-20T05:56:26.666Z,99439.52
2023-04-20T05:57:29.620Z,99439.52
2023-04-20T05:58:36.904Z,99439.52
2023-04-20T05:59:39.153Z,99436.91
2023-04-20T06:00:42.052Z,99434.47
2023-04-20T06:01:44.317Z,99443.02
2023-04-20T06:02:47.322Z,99440.80
2023-04-20T06:03:49.810Z,99433.14
2023-04-20T06:04:53.138Z,99441.51
2023-04-20T06:05:55.801Z,99441.36
2023-04-20T06:06:59.594Z,99450.63
2023-04-20T06:08:01.722Z,99433.95
2023-04-20T06:09:04.632Z,99448.94
2023-04-20T06:10:08.516Z,99440.38
2023-04-20T06:11:12.021Z,99454.13
2023-04-20T06:12:15.101Z,99442.06
2023-04-20T06:13:17.476Z,99437.98
2023-04-20T06:14:19.794Z,99443.40
2023-04-20T06:15:22.118Z,99438.76
2023-04-20T06:16:24.734Z,99439.46
2023-04-20T06:17:27.319Z,99438.44
2023-04-20T06:18:29.538Z,99433.09
2023-04-20T06:19:31.642Z,99437.01
2023-04-20T06:20:33.960Z,99428.89
2023-04-20T06:21:36.569Z,99427.90
2023-04-20T06:22:44.771Z,99434.50
2023-04-20T06:23:47.160Z,99430.13
2023-04-20T06:24:49.556Z,99431.81
2023-04-20T06:25:52.058Z,99426.33
2023-04-20T06:26:54.656Z,99421.30
2023-04-20T06:27:56.987Z,99423.24
2023-04-20T06:29:00.820Z,99422.95
2023-04-20T06:30:04.242Z,99418.45
2023-04-20T06:31:09.754Z,99420.84
2023-04-20T06:32:12.180Z,99420.84
2023-04-20T06:33:16.577Z,99424.84
2023-04-20T06:34:19.486Z,99419.85
2023-04-20T06:35:22.879Z,99422.23
2023-04-20T06:36:27.165Z,99425.75
2023-04-20T06:37:29.738Z,99408.34
2023-04-20T06:38:33.099Z,99413.53
2023-04-20T06:39:35.573Z,99415.06
2023-04-20T06:40:38.076Z,99405.44
2023-04-20T06:41:40.343Z,99410.64
2023-04-20T06:42:42.968Z,99400.72
2023-04-20T06:43:46.784Z,99409.59
2023-04-20T06:44:48.967Z,99406.22
2023-04-20T06:45:52.328Z,99401.02
2023-04-20T06:46:54.877Z,99399.20
2023-04-20T06:47:57.196Z,99407.27
2023-04-20T06:48:59.275Z,99400.80
2023-04-20T06:50:06.351Z,99400.72
2023-04-20T06:51:09.148Z,99393.02
2023-04-20T06:52:11.177Z,99404.23
2023-04-20T06:53:13.481Z,99403.45
2023-04-20T06:54:15.713Z,99405.01
2023-04-20T06:55:18.013Z,99401.11
2023-04-20T06:56:21.551Z,99399.90
2023-04-20T06:57:23.948Z,99398.13
2023-04-20T06:58:26.190Z,99396.16
2023-04-20T06:59:29.177Z,99401.50
2023-04-20T07:00:31.579Z,99394.48
2023-04-20T07:01:34.093Z,99397.98
2023-04-20T07:02:48.826Z,99386.59
2023-04-20T07:03:53.025Z,99388.20
2023-04-20T07:05:01.945Z,99391.48
2023-04-20T07:06:06.662Z,99393.17
2023-04-20T07:07:09.014Z,99403.66
2023-04-20T07:08:11.236Z,99389.11
2023-04-20T07:09:13.942Z,99385.22
2023-04-20T07:10:16.852Z,99390.58
2023-04-20T07:11:19.166Z,99385.30
2023-04-20T07:12:21.467Z,99386.08
2023-04-20T07:13:25.577Z,99376.59
2023-04-20T07:14:28.530Z,99381.14
2023-04-20T07:15:30.807Z,99371.91
2023-04-20T07:16:33.107Z,99374.66
2023-04-20T07:17:35.592Z,99384.13
2023-04-20T07:18:37.958Z,99379.62
2023-04-20T07:19:40.571Z,99372.30
2023-04-20T07:20:43.402Z,99379.88
2023-04-20T07:21:45.908Z,99380.88
2023-04-20T07:22:51.336Z,99381.48
2023-04-20T07:23:56.033Z,99379.19
2023-04-20T07:25:00.407Z,99385.30
2023-04-20T07:26:03.965Z,99385.91
2023-04-20T07:27:07.922Z,99386.59
2023-04-20T07:28:12.222Z,99388.80
2023-04-20T07:29:15.897Z,99383.55
2023-04-20T07:30:19.047Z,99383.55
2023-04-20T07:31:21.997Z,99385.14
2023-04-20T07:32:25.417Z,99380.35
2023-04-20T07:33:29.251Z,99389.61
2023-04-20T07:34:31.699Z,99382.41
2023-04-20T07:35:33.844Z,99378.58
2023-04-20T07:36:38.154Z,99378.58
2023-04-20T07:37:40.904Z,99371.00
2023-04-20T07:38:43.103Z,99387.38
2023-04-20T07:39:45.925Z,99387.38
2023-04-20T07:40:48.499Z,99390.84
2023-04-20T07:41:51.803Z,99394.58
2023-04-20T07:42:55.274Z,99387.59
2023-04-20T07:43:57.659Z,99382.00
2023-04-20T07:44:59.980Z,99385.14
2023-04-20T07:46:07.582Z,99384.08
2023-04-20T07:47:10.207Z,99378.41
2023-04-20T07:48:12.652Z,99382.39
2023-04-20T07:49:15.618Z,99386.34
2023-04-20T07:50:18.395Z,99384.69
2023-04-20T07:51:22.006Z,99382.31
2023-04-20T07:52:26.066Z,99374.34
2023-04-20T07:53:32.506Z,99377.85
2023-04-20T07:54:35.433Z,99383.19
2023-04-20T07:55:37.871Z,99377.45
2023-04-20T07:56:40.295Z,99377.24
2023-04-20T07:57:43.806Z,99383.34
2023-04-20T07:58:46.543Z,99376.98
2023-04-20T07:59:49.041Z,99372.38
2023-04-20T08:01:43.198Z,99363.88
2023-04-20T08:02:45.629Z,99372.75
2023-04-20T08:03:48.231Z,99387.75
2023-04-20T08:04:52.083Z,99385.94
2023-04-20T08:05:55.818Z,99380.46
2023-04-20T08:06:58.386Z,99383.55
2023-04-20T08:08:00.486Z,99386.22
2023-04-20T08:09:03.219Z,99394.08
2023-04-20T08:10:06.865Z,99387.91
2023-04-20T08:11:09.159Z,99389.02
2023-04-20T08:12:11.406Z,99367.41
2023-04-20T08:13:14.302Z,99393.36
2023-04-20T08:14:16.809Z,99401.25
2023-04-20T08:15:19.377Z,99394.18
2023-04-20T08:16:21.834Z,99388.99
2023-04-20T08:17:24.200Z,99379.47
2023-04-20T08:18:27.713Z,99392.95
2023-04-20T08:19:30.308Z,99372.59
2023-04-20T08:21:37.825Z,99388.99
2023-04-20T08:22:40.107Z,99386.63
2023-04-20T08:23:42.695Z,99396.02
2023-04-20T08:24:45.038Z,99392.52
2023-04-20T08:25:47.180Z,99393.36
2023-04-20T08:26:50.158Z,99392.72
2023-04-20T08:27:53.419Z,99384.78
2023-04-20T08:28:55.882Z,99379.88
2023-04-20T08:29:58.406Z,99389.42
2023-04-20T08:31:01.266Z,99392.56
2023-04-20T08:32:04.058Z,99386.27
2023-04-20T08:33:06.877Z,99388.04
2023-04-20T08:34:09.287Z,99394.14
2023-04-20T08:35:11.494Z,99393.36
2023-04-20T08:36:14.604Z,99394.97
2023-04-20T08:37:17.671Z,99385.45
2023-04-20T08:38:26.900Z,99395.67
2023-04-20T08:39:25.541Z,99395.67
2023-04-20T08:40:29.418Z,99396.58
2023-04-20T08:41:31.875Z,99401.37
2023-04-20T08:42:34.368Z,99394.61
2023-04-20T08:43:40.152Z,99398.84
2023-04-20T08:44:42.984Z,99404.74
2023-04-20T08:45:49.633Z,99404.74
2023-04-20T08:46:51.962Z,99407.27
2023-04-20T08:47:55.910Z,99408.09
2023-04-20T08:49:01.831Z,99396.95
2023-04-20T08:50:06.017Z,99403.96
2023-04-20T08:51:08.999Z,99397.86
2023-04-20T08:52:11.867Z,99394.91
2023-04-20T08:53:14.096Z,99388.73
2023-04-20T08:54:17.868Z,99404.23
2023-04-20T08:55:20.671Z,99402.34
2023-04-20T08:57:51.202Z,99394.92
2023-04-20T08:58:55.792Z,99401.59
2023-04-20T08:59:58.690Z,99408.23
2023-04-20T09:01:01.718Z,99407.69
2023-04-20T09:02:11.372Z,99403.20
2023-04-20T09:03:14.393Z,99415.98
2023-04-20T09:04:23.100Z,99401.80
2023-04-20T09:05:29.340Z,99397.72
2023-04-20T09:06:31.846Z,99396.24
2023-04-20T09:07:34.782Z,99397.84
2023-04-20T09:08:39.756Z,99401.93
2023-04-20T09:09:43.785Z,99388.17
2023-04-20T09:10:46.579Z,99394.55
2023-04-20T09:12:04.524Z,99399.41
2023-04-20T09:13:06.870Z,99405.15
2023-04-20T09:14:13.001Z,99411.75
2023-04-20T09:15:26.328Z,99410.62
2023-04-20T09:16:29.512Z,99415.91
2023-04-20T09:17:34.567Z,99412.31
2023-04-20T09:18:39.364Z,99407.66
2023-04-20T09:19:44.144Z,99396.66
2023-04-20T09:20:46.745Z,99403.95
2023-04-20T09:21:51.226Z,99408.52
2023-04-20T09:22:54.211Z,99406.63
2023-04-20T09:24:08.182Z,99410.05
2023-04-20T09:25:17.375Z,99394.64
2023-04-20T09:26:20.224Z,99411.45
2023-04-20T09:27:23.305Z,99383.53
2023-04-20T09:28:41.131Z,99410.91
2023-04-20T09:29:44.650Z,99403.95
2023-04-20T09:30:48.597Z,99408.31
2023-04-20T09:31:51.628Z,99400.67
2023-04-20T09:33:02.281Z,99402.31
2023-04-20T09:34:05.123Z,99405.82
2023-04-20T09:35:09.152Z,99399.20
2023-04-20T09:36:11.711Z,99400.72
2023-04-20T09:37:18.196Z,99398.13
2023-04-20T09:38:24.122Z,99402.41
2023-04-20T09:39:26.478Z,99397.82
2023-04-20T09:40:29.826Z,99390.94
2023-04-20T09:41:34.241Z,99398.43
2023-04-20T09:42:40.252Z,99390.33
2023-04-20T09:43:43.598Z,99402.88
2023-04-20T09:44:46.072Z,99390.20
2023-04-20T09:45:49.784Z,99389.84
2023-04-20T09:46:52.620Z,99391.44
2023-04-20T09:47:56.684Z,99395.24
2023-04-20T09:49:01.041Z,99382.23
2023-04-20T09:50:19.356Z,99400.39
2023-04-20T09:51:10.174Z,99397.78
2023-04-20T09:52:14.874Z,99392.17
2023-04-20T09:53:18.558Z,99400.75
2023-04-20T09:54:21.564Z,99399.89
2023-04-20T09:55:26.040Z,99393.09
2023-04-20T09:56:29.663Z,99402.81
2023-04-20T09:57:32.045Z,99401.07
2023-04-20T09:58:34.465Z,99412.53
2023-04-20T09:59:37.917Z,99391.90
2023-04-20T10:00:42.287Z,99391.90
2023-04-20T10:01:45.218Z,99392.04
2023-04-20T10:02:48.013Z,99396.47
2023-04-20T10:03:55.946Z,99401.16
2023-04-20T10:05:02.288Z,99387.92
2023-04-20T10:06:06.937Z,99401.07
2023-04-20T10:07:10.508Z,99396.88
2023-04-20T10:08:13.108Z,99401.44
2023-04-20T10:09:22.902Z,99392.95
2023-04-20T10:10:26.701Z,99401.53
2023-04-20T10:11:49.111Z,99394.33
2023-04-20T10:12:48.580Z,99403.12
2023-04-20T10:13:51.193Z,99404.27
2023-04-20T10:14:57.767Z,99392.09
2023-04-20T10:16:00.137Z,99402.91
2023-04-20T10:17:07.252Z,99373.52
2023-04-20T10:18:22.692Z,99403.05
2023-04-20T10:19:26.762Z,99404.59
2023-04-20T10:20:29.559Z,99399.84
2023-04-20T10:21:33.200Z,99411.67
2023-04-20T10:22:35.696Z,99388.48
2023-04-20T10:23:48.833Z,99402.91
2023-04-20T10:24:52.319Z,99398.89
2023-04-20T10:26:00.039Z,99407.64
2023-04-20T10:27:03.841Z,99397.38
2023-04-20T10:28:08.178Z,99405.09
2023-04-20T10:29:13.997Z,99408.47
2023-04-20T10:30:17.758Z,99400.07
2023-04-20T10:31:22.464Z,99408.38
2023-04-20T10:32:26.892Z,99403.18
2023-04-20T10:33:29.791Z,99398.89
2023-04-20T10:34:36.973Z,99404.36
2023-04-20T10:35:51.431Z,99397.52
2023-04-20T10:36:54.039Z,99406.42
2023-04-20T10:37:57.155Z,99407.82
2023-04-20T10:39:05.285Z,99408.88
2023-04-20T10:40:10.121Z,99407.19
2023-04-20T10:41:13.357Z,99398.78
2023-04-20T10:42:17.981Z,99412.97
2023-04-20T10:43:21.030Z,99409.91
2023-04-20T10:44:27.049Z,99404.09
2023-04-20T10:45:39.544Z,99415.93
2023-04-20T10:46:41.928Z,99422.91
2023-04-20T10:47:44.719Z,99402.41
2023-04-20T10:48:52.585Z,99407.39
2023-04-20T10:49:57.329Z,99412.42
2023-04-20T10:51:03.694Z,99412.06
2023-04-20T10:52:07.109Z,99417.09
2023-04-20T10:53:23.369Z,99420.25
2023-04-20T10:54:27.340Z,99410.82
2023-04-20T10:55:31.303Z,99418.48
2023-04-20T10:56:39.379Z,99416.66
2023-04-20T10:57:46.243Z,99413.59
2023-04-20T10:58:49.010Z,99421.30
2023-04-20T10:59:51.118Z,99420.17
2023-04-20T11:01:05.203Z,99411.45
2023-04-20T11:02:10.260Z,99418.40
2023-04-20T11:03:12.745Z,99420.94
2023-04-20T11:04:18.392Z,99423.09
2023-04-20T11:05:22.645Z,99431.37
2023-04-20T11:06:27.238Z,99426.16
2023-04-20T11:07:29.497Z,99420.96
2023-04-20T11:08:42.624Z,99414.98
2023-04-20T11:09:44.796Z,99426.30
2023-04-20T11:10:47.839Z,99427.25
2023-04-20T11:12:11.618Z,99420.36
2023-04-20T11:13:23.088Z,99426.61
2023-04-20T11:14:26.280Z,99423.79
2023-04-20T11:15:36.235Z,99423.65
2023-04-20T11:16:50.803Z,99426.16
2023-04-20T11:17:46.200Z,99422.73
2023-04-20T11:18:52.955Z,99426.94
2023-04-20T11:19:59.536Z,99443.23
2023-04-20T11:21:01.906Z,99426.77
2023-04-20T11:22:06.377Z,99431.52
2023-04-20T11:23:09.488Z,99424.17
2023-04-20T11:24:23.684Z,99434.43
2023-04-20T11:25:28.451Z,99437.17
2023-04-20T11:26:35.629Z,99424.94
2023-04-20T11:27:39.112Z,99435.34
2023-04-20T11:28:55.963Z,99429.06
2023-04-20T11:30:02.532Z,99429.06
2023-04-20T11:31:07.269Z,99423.08
2023-04-20T11:32:11.062Z,99437.46
2023-04-20T11:33:13.679Z,99428.60
2023-04-20T11:34:21.808Z,99421.08
2023-04-20T11:35:24.336Z,99433.77
2023-04-20T11:36:29.478Z,99427.50
2023-04-20T11:37:31.986Z,99428.09
2023-04-20T11:38:35.897Z,99429.70
2023-04-20T11:39:39.345Z,99429.46
2023-04-20T11:40:41.627Z,99425.26
2023-04-20T11:41:45.104Z,99430.37
2023-04-20T11:42:50.157Z,99422.66
2023-04-20T11:43:53.104Z,99424.41
2023-04-20T11:44:57.113Z,99428.69
2023-04-20T11:46:02.420Z,99429.02
2023-04-20T11:47:09.100Z,99425.67
2023-04-20T11:48:12.576Z,99417.77
2023-04-20T11:49:18.133Z,99415.41
2023-04-20T11:50:28.249Z,99412.21
2023-04-20T11:51:39.059Z,99413.89
2023-04-20T11:52:43.380Z,99413.36
2023-04-20T11:53:45.995Z,99416.73
2023-04-20T11:54:50.368Z,99408.52
2023-04-20T11:55:52.493Z,99408.52
2023-04-20T11:56:55.467Z,99412.03
2023-04-20T11:57:57.779Z,99422.12
2023-04-20T11:59:00.212Z,99407.59
2023-04-20T12:00:03.767Z,99418.69
2023-04-20T12:01:08.020Z,99415.55
2023-04-20T12:02:10.420Z,99414.87
2023-04-20T12:03:14.033Z,99413.22
2023-04-20T12:04:17.009Z,99411.89
2023-04-20T12:05:19.900Z,99416.00
2023-04-20T12:06:22.165Z,99411.56
2023-04-20T12:07:24.491Z,99404.52
2023-04-20T12:08:27.744Z,99407.87
2023-04-20T12:09:30.498Z,99405.35
2023-04-20T12:10:32.598Z,99406.95
2023-04-20T12:11:35.860Z,99410.41
2023-04-20T12:12:39.076Z,99405.56
2023-04-20T12:13:41.456Z,99413.19
2023-04-20T12:14:44.973Z,99407.24
2023-04-20T12:15:55.778Z,99411.45
2023-04-20T12:16:58.069Z,99408.27
2023-04-20T12:18:00.596Z,99411.28
2023-04-20T12:19:02.921Z,99410.45
2023-04-20T12:20:08.043Z,99407.02
2023-04-20T12:21:12.218Z,99402.39
2023-04-20T12:22:15.598Z,99402.39
2023-04-20T12:23:19.236Z,99410.54
2023-04-20T12:24:23.442Z,99406.25
2023-04-20T12:25:25.858Z,99409.92
2023-04-20T12:26:37.239Z,99415.64
2023-04-20T12:27:37.272Z,99404.13
2023-04-20T12:28:40.381Z,99409.52
2023-04-20T12:29:42.734Z,99398.48
2023-04-20T12:30:49.496Z,99408.07
2023-04-20T12:31:54.634Z,99412.13
2023-04-20T12:32:57.750Z,99413.19
2023-04-20T12:34:02.158Z,99405.56